Time;durP1;ratioP1;P1;durP2;ratioP2;P2;SDS_P1;SDS_P2;PMS_P1;PMS_P2;Temp;Humidity;BMP_temperature;BMP_pressure;BME280_temperature;BME280_humidity;BME280_pressure;Samples;Min_cycle;Max_cycle;Signal;HPM_P1;HPM_P2
2023/05/11 00:01:55;;;;;;;23.70;19.98;;;12.40;99.90;;;;;;7367613;19;20031;-62
2023/05/11 00:04:22;;;;;;;20.05;17.70;;;12.40;99.90;;;;;;7364132;19;20025;-62
2023/05/11 00:06:48;;;;;;;20.90;18.42;;;12.40;99.90;;;;;;7369318;19;20034;-62
2023/05/11 00:09:14;;;;;;;21.40;18.33;;;12.40;99.90;;;;;;7367739;19;20014;-62
2023/05/11 00:11:40;;;;;;;23.38;20.70;;;12.40;99.90;;;;;;7360426;19;20666;-62
2023/05/11 00:14:10;;;;;;;21.23;18.92;;;12.40;99.90;;;;;;7368854;19;20046;-64
2023/05/11 00:16:36;;;;;;;24.23;20.13;;;12.40;99.90;;;;;;7364578;19;20377;-63
2023/05/11 00:19:03;;;;;;;22.00;19.55;;;12.40;99.90;;;;;;7368339;19;20018;-62
2023/05/11 00:21:29;;;;;;;23.33;20.60;;;12.40;99.90;;;;;;7363565;19;20018;-61
2023/05/11 00:23:55;;;;;;;23.90;21.38;;;12.40;99.90;;;;;;7368342;19;20014;-63
2023/05/11 00:26:22;;;;;;;23.90;19.50;;;12.30;99.90;;;;;;7364750;19;20022;-62
2023/05/11 00:28:48;;;;;;;23.67;20.33;;;12.30;99.90;;;;;;7367928;19;20014;-62
2023/05/11 00:31:15;;;;;;;23.05;20.33;;;12.30;99.90;;;;;;7366179;19;20022;-62
2023/05/11 00:33:41;;;;;;;23.13;20.13;;;12.30;99.90;;;;;;7364727;19;20493;-63
2023/05/11 00:36:07;;;;;;;25.48;20.63;;;12.30;99.90;;;;;;7365747;19;20014;-64
2023/05/11 00:38:35;;;;;;;26.65;23.02;;;12.30;99.90;;;;;;7367636;19;20613;-62
2023/05/11 00:41:02;;;;;;;25.70;21.38;;;12.30;99.90;;;;;;7365291;19;20669;-62
2023/05/11 00:43:28;;;;;;;26.33;22.13;;;12.20;99.90;;;;;;7368120;19;20007;-63
2023/05/11 00:45:55;;;;;;;26.60;22.23;;;12.20;99.90;;;;;;7367093;19;20498;-63
2023/05/11 00:48:22;;;;;;;26.23;20.95;;;12.20;99.90;;;;;;7366831;19;20018;-63
2023/05/11 00:50:49;;;;;;;24.23;21.65;;;12.20;99.90;;;;;;7363989;19;20018;-64
2023/05/11 00:53:16;;;;;;;24.52;21.08;;;12.20;99.90;;;;;;7370854;19;20022;-62
2023/05/11 00:55:43;;;;;;;26.88;23.13;;;12.20;99.90;;;;;;7367000;19;20654;-62
2023/05/11 00:58:09;;;;;;;26.65;22.58;;;12.20;99.90;;;;;;7367376;19;20131;-62
2023/05/11 01:00:36;;;;;;;29.20;23.52;;;12.20;99.90;;;;;;7366326;19;20018;-62
2023/05/11 01:03:03;;;;;;;25.80;22.42;;;12.20;99.90;;;;;;7367666;19;20018;-62
2023/05/11 01:06:03;;;;;;;26.58;22.70;;;12.20;99.90;;;;;;7368379;19;20037;-63
2023/05/11 01:08:53;;;;;;;31.05;22.85;;;12.20;99.90;;;;;;7367612;19;20482;-62
2023/05/11 01:11:29;;;;;;;27.08;22.58;;;12.20;99.90;;;;;;7365967;19;20036;-64
2023/05/11 01:14:19;;;;;;;24.95;20.98;;;12.20;99.90;;;;;;7369825;19;20028;-63
2023/05/11 01:16:50;;;;;;;28.30;23.60;;;12.20;99.90;;;;;;7366692;19;20018;-63
2023/05/11 01:19:38;;;;;;;26.65;23.77;;;12.20;99.90;;;;;;7368775;19;20549;-62
2023/05/11 01:22:16;;;;;;;26.00;21.63;;;12.20;99.90;;;;;;7367102;19;20018;-63
2023/05/11 01:25:22;;;;;;;29.20;23.10;;;12.20;99.90;;;;;;7367823;19;20022;-63
2023/05/11 01:28:31;;;;;;;27.50;22.42;;;12.20;99.90;;;;;;7367216;19;20027;-63
2023/05/11 01:31:09;;;;;;;27.23;23.60;;;12.10;99.90;;;;;;7358588;19;20022;-63
2023/05/11 01:33:39;;;;;;;27.02;21.42;;;12.10;99.90;;;;;;7361338;19;20022;-64
2023/05/11 01:36:09;;;;;;;27.17;22.20;;;12.10;99.90;;;;;;7357856;19;20019;-64
2023/05/11 01:38:43;;;;;;;31.42;23.23;;;12.10;99.90;;;;;;7359033;19;20018;-63
2023/05/11 01:41:17;;;;;;;27.85;22.58;;;12.10;99.90;;;;;;7360449;19;20398;-63
2023/05/11 01:43:49;;;;;;;28.30;23.08;;;12.10;99.90;;;;;;7357807;19;20050;-63
2023/05/11 01:46:17;;;;;;;30.90;24.30;;;12.20;99.90;;;;;;7359882;19;20532;-62
2023/05/11 01:48:48;;;;;;;30.77;23.67;;;12.10;99.90;;;;;;7357213;19;20018;-62
2023/05/11 01:51:17;;;;;;;31.52;23.75;;;12.10;99.90;;;;;;7361140;19;20579;-62
2023/05/11 01:53:45;;;;;;;27.80;22.65;;;12.10;99.90;;;;;;7355889;19;20078;-63
2023/05/11 01:56:14;;;;;;;27.48;22.25;;;12.10;99.90;;;;;;7359167;19;20018;-62
2023/05/11 01:58:42;;;;;;;27.23;22.85;;;12.10;99.90;;;;;;7354744;19;20018;-62
2023/05/11 02:01:10;;;;;;;29.13;22.55;;;12.00;99.90;;;;;;7360636;19;20022;-63
2023/05/11 02:03:38;;;;;;;28.38;23.05;;;12.00;99.90;;;;;;7365338;19;20425;-63
2023/05/11 02:06:06;;;;;;;28.05;22.00;;;12.10;99.90;;;;;;7366926;19;20018;-63
2023/05/11 02:08:37;;;;;;;27.42;22.60;;;12.00;99.90;;;;;;7364486;19;20029;-63
2023/05/11 02:11:05;;;;;;;26.75;21.90;;;12.00;99.90;;;;;;7366084;19;20474;-61
2023/05/11 02:13:35;;;;;;;26.50;20.98;;;12.00;99.90;;;;;;7364852;19;20551;-62
2023/05/11 02:16:04;;;;;;;28.58;22.08;;;12.00;99.90;;;;;;7366944;19;20430;-62
2023/05/11 02:18:31;;;;;;;25.95;21.45;;;12.00;99.90;;;;;;7363960;19;20547;-62
2023/05/11 02:21:00;;;;;;;24.92;21.38;;;12.00;99.90;;;;;;7369104;19;20070;-65
2023/05/11 02:23:31;;;;;;;25.60;20.98;;;12.00;99.90;;;;;;7361055;19;20034;-63
2023/05/11 02:25:59;;;;;;;27.70;19.90;;;12.00;99.90;;;;;;7365501;19;20018;-63
2023/05/11 02:28:26;;;;;;;27.30;21.90;;;12.00;99.90;;;;;;7366768;19;20440;-63
2023/05/11 02:30:55;;;;;;;28.40;22.85;;;12.00;99.90;;;;;;7373154;19;20026;-63
2023/05/11 02:33:31;;;;;;;28.48;22.63;;;12.00;99.90;;;;;;7372332;19;20015;-63
2023/05/11 02:35:58;;;;;;;25.77;21.05;;;12.00;99.90;;;;;;7370342;19;20014;-64
2023/05/11 02:38:34;;;;;;;29.08;22.23;;;12.00;99.90;;;;;;7372500;19;20023;-63
2023/05/11 02:41:17;;;;;;;33.10;22.90;;;12.00;99.90;;;;;;7373614;19;20014;-63
2023/05/11 02:43:48;;;;;;;32.40;23.00;;;12.00;99.90;;;;;;7371836;19;20026;-64
2023/05/11 02:46:18;;;;;;;;;;;12.00;99.90;;;;;;7373180;19;20034;-64
2023/05/11 02:48:49;;;;;;;29.92;22.52;;;12.00;99.90;;;;;;7369287;19;19930;-63
2023/05/11 02:51:21;;;;;;;28.25;22.55;;;12.00;99.90;;;;;;7370657;19;20086;-63
2023/05/11 02:53:53;;;;;;;30.45;21.52;;;12.00;99.90;;;;;;7367195;19;20018;-63
2023/05/11 02:56:20;;;;;;;32.08;24.02;;;11.90;99.90;;;;;;7370904;19;20018;-63
2023/05/11 02:58:48;;;;;;;31.98;23.05;;;11.90;99.90;;;;;;7371320;19;20086;-64
2023/05/11 03:01:19;;;;;;;36.33;25.52;;;11.90;99.90;;;;;;7366444;19;20030;-64
2023/05/11 03:03:47;;;;;;;30.42;22.88;;;11.90;99.90;;;;;;7369588;19;20365;-63
2023/05/11 03:06:14;;;;;;;31.45;22.67;;;11.90;99.90;;;;;;7371828;19;20022;-64
2023/05/11 03:08:41;;;;;;;33.17;24.00;;;11.90;99.90;;;;;;7370656;19;20026;-64
2023/05/11 03:11:09;;;;;;;32.45;24.25;;;11.90;99.90;;;;;;7370325;19;20010;-63
2023/05/11 03:13:36;;;;;;;35.35;24.88;;;11.90;99.90;;;;;;7367643;19;20039;-63
2023/05/11 03:16:05;;;;;;;30.75;24.05;;;11.90;99.90;;;;;;7370759;19;20038;-63
2023/05/11 03:18:34;;;;;;;33.63;24.30;;;11.90;99.90;;;;;;7366986;19;20054;-63
2023/05/11 03:21:02;;;;;;;37.28;26.67;;;11.90;99.90;;;;;;7369314;19;20545;-63
2023/05/11 03:23:33;;;;;;;33.58;24.88;;;11.80;99.90;;;;;;7369082;19;20019;-64
2023/05/11 03:26:00;;;;;;;35.67;25.52;;;11.90;99.90;;;;;;7372134;19;20118;-65
2023/05/11 03:28:28;;;;;;;35.42;26.75;;;11.90;99.90;;;;;;7369094;19;20044;-63
2023/05/11 03:31:00;;;;;;;39.05;26.48;;;11.80;99.90;;;;;;7371503;19;20669;-64
2023/05/11 03:33:26;;;;;;;38.65;27.48;;;11.80;99.90;;;;;;7369351;19;20489;-61
2023/05/11 03:35:54;;;;;;;37.60;28.20;;;11.80;99.90;;;;;;7370564;19;20021;-62
2023/05/11 03:38:25;;;;;;;41.42;27.70;;;11.90;99.90;;;;;;7368700;19;20022;-62
2023/05/11 03:40:57;;;;;;;47.28;29.73;;;11.80;99.90;;;;;;7368508;19;20018;-61
2023/05/11 03:43:28;;;;;;;44.45;31.33;;;11.80;99.90;;;;;;7369287;19;20029;-62
2023/05/11 03:45:56;;;;;;;44.38;31.42;;;11.80;99.90;;;;;;7368455;19;20048;-62
2023/05/11 03:48:25;;;;;;;45.95;30.80;;;11.80;99.90;;;;;;7367007;19;20979;-61
2023/05/11 03:50:56;;;;;;;48.75;32.58;;;11.80;99.90;;;;;;7367430;19;20015;-62
2023/05/11 03:53:23;;;;;;;50.17;32.78;;;11.80;99.90;;;;;;7369580;19;20022;-62
2023/05/11 03:55:51;;;;;;;58.60;34.28;;;11.80;99.90;;;;;;7366713;19;20629;-62
2023/05/11 03:58:18;;;;;;;55.92;33.97;;;11.80;99.90;;;;;;7370838;19;20018;-62
2023/05/11 04:00:44;;;;;;;64.10;34.95;;;11.80;99.90;;;;;;7367174;19;20021;-62
2023/05/11 04:03:11;;;;;;;63.80;36.67;;;11.70;99.90;;;;;;7369751;19;20463;-61
2023/05/11 04:05:39;;;;;;;63.25;37.08;;;11.70;99.90;;;;;;7368787;19;20610;-61
2023/05/11 04:08:09;;;;;;;59.03;33.78;;;11.70;99.90;;;;;;7370438;19;20023;-62
2023/05/11 04:10:37;;;;;;;64.10;33.65;;;11.70;99.90;;;;;;7364424;19;20023;-62
2023/05/11 04:13:08;;;;;;;64.35;35.90;;;11.80;99.90;;;;;;7367793;19;20022;-62
2023/05/11 04:15:36;;;;;;;68.97;36.00;;;11.80;99.90;;;;;;7363541;19;20454;-61
2023/05/11 04:18:03;;;;;;;55.15;33.58;;;11.80;99.90;;;;;;7370878;19;20018;-61
2023/05/11 04:20:31;;;;;;;53.75;32.47;;;11.80;99.90;;;;;;7368031;19;20382;-64
2023/05/11 04:22:58;;;;;;;60.30;32.97;;;11.80;99.90;;;;;;7368733;19;20022;-63
2023/05/11 04:25:26;;;;;;;59.60;34.38;;;11.80;99.90;;;;;;7369029;19;20027;-63
2023/05/11 04:27:52;;;;;;;62.72;35.25;;;11.70;99.90;;;;;;7370035;19;20495;-63
2023/05/11 04:30:20;;;;;;;56.83;33.88;;;11.80;99.90;;;;;;7369996;19;20506;-63
2023/05/11 04:32:46;;;;;;;62.55;35.88;;;11.80;99.90;;;;;;7365403;19;20431;-63
2023/05/11 04:35:13;;;;;;;64.53;35.53;;;11.80;99.90;;;;;;7364897;19;20865;-62
2023/05/11 04:37:39;;;;;;;65.75;35.38;;;11.80;99.90;;;;;;7367792;19;20481;-62
2023/05/11 04:40:09;;;;;;;62.28;35.33;;;11.80;99.90;;;;;;7367412;19;20092;-62
2023/05/11 04:42:40;;;;;;;73.90;37.25;;;11.80;99.90;;;;;;7366525;19;20014;-61
2023/05/11 04:45:12;;;;;;;;;;;11.80;99.90;;;;;;7366963;19;20059;-61
2023/05/11 04:47:39;;;;;;;63.78;34.67;;;11.80;99.90;;;;;;7366774;19;19923;-61
2023/05/11 04:50:08;;;;;;;85.05;40.25;;;11.80;99.90;;;;;;7365619;19;20842;-62
2023/05/11 04:52:35;;;;;;;85.47;38.60;;;11.80;99.90;;;;;;7368212;19;20018;-62
2023/05/11 04:55:02;;;;;;;80.00;39.03;;;11.80;99.90;;;;;;7363610;19;20015;-62
2023/05/11 04:57:29;;;;;;;70.70;37.88;;;11.90;99.90;;;;;;7366801;19;20349;-63
2023/05/11 04:59:57;;;;;;;77.43;40.17;;;11.90;99.90;;;;;;7367089;19;20040;-61
2023/05/11 05:02:24;;;;;;;83.20;41.13;;;11.90;99.90;;;;;;7369900;19;20018;-62
2023/05/11 05:05:10;;;;;;;80.63;41.28;;;11.90;99.90;;;;;;7366134;19;20028;-61
2023/05/11 05:07:36;;;;;;;79.63;41.67;;;11.80;99.90;;;;;;7364722;19;20023;-62
2023/05/11 05:10:07;;;;;;;76.57;42.00;;;11.90;99.90;;;;;;7358448;19;20018;-62
2023/05/11 05:12:40;;;;;;;78.13;39.37;;;11.90;99.90;;;;;;7359251;19;20537;-63
2023/05/11 05:15:07;;;;;;;76.85;40.10;;;11.90;99.90;;;;;;7349409;19;20742;-63
2023/05/11 05:17:33;;;;;;;73.32;39.13;;;12.00;99.90;;;;;;7349219;19;20624;-62
2023/05/11 05:20:00;;;;;;;77.80;41.97;;;12.00;99.90;;;;;;7346677;19;20014;-63
2023/05/11 05:22:26;;;;;;;60.95;33.28;;;12.00;99.90;;;;;;7344870;19;20146;-63
2023/05/11 05:24:53;;;;;;;45.42;29.75;;;12.00;99.90;;;;;;7346695;19;20026;-63
2023/05/11 13:25:15;;;;;;;11.45;8.52;;;19.80;99.90;;;;;;6666652;19;20362;-60
2023/05/11 13:27:45;;;;;;;8.60;7.13;;;19.80;99.90;;;;;;7347192;19;20016;-71
2023/05/11 13:30:12;;;;;;;22.75;20.30;;;19.60;99.90;;;;;;7362980;19;20042;-66
2023/05/11 13:32:38;;;;;;;105.25;93.97;;;19.30;99.90;;;;;;7365317;19;20319;-59
2023/05/11 13:35:05;;;;;;;55.78;49.95;;;19.40;99.90;;;;;;7366753;19;20743;-59
2023/05/11 13:37:32;;;;;;;46.20;41.25;;;19.30;99.90;;;;;;7370883;19;20018;-59
2023/05/11 13:39:58;;;;;;;21.50;19.20;;;19.20;99.90;;;;;;7368046;19;20038;-60
2023/05/11 13:42:24;;;;;;;73.60;65.72;;;19.30;99.90;;;;;;7368301;19;20014;-60
2023/05/11 13:44:50;;;;;;;61.85;46.05;;;19.20;99.90;;;;;;7368131;19;20043;-70
2023/05/11 13:47:17;;;;;;;20.45;17.77;;;19.00;99.90;;;;;;7369731;19;20102;-69
2023/05/11 13:49:43;;;;;;;23.02;19.70;;;18.70;99.90;;;;;;7366626;19;20018;-70
2023/05/11 13:52:10;;;;;;;14.23;11.63;;;18.70;99.90;;;;;;7371241;19;20023;-70
2023/05/11 13:54:36;;;;;;;18.05;13.48;;;18.50;99.90;;;;;;7371060;19;20085;-69
2023/05/11 13:57:02;;;;;;;75.93;67.10;;;18.60;99.90;;;;;;7368559;19;20109;-59
2023/05/11 13:59:28;;;;;;;25.63;22.88;;;18.70;99.90;;;;;;7364247;19;20038;-60
2023/05/11 14:01:55;;;;;;;13.15;10.55;;;18.80;99.90;;;;;;7365925;19;20027;-70
2023/05/11 14:04:21;;;;;;;14.82;11.23;;;18.70;99.90;;;;;;7368019;19;20023;-70
2023/05/11 14:06:47;;;;;;;5.43;3.58;;;18.50;99.90;;;;;;7368087;19;20022;-58
2023/05/11 14:09:14;;;;;;;5.25;3.53;;;18.70;99.90;;;;;;7364923;19;20030;-58
2023/05/11 14:11:40;;;;;;;5.65;3.35;;;18.50;99.90;;;;;;7366184;19;20588;-59
2023/05/11 14:14:06;;;;;;;6.47;3.78;;;18.50;99.90;;;;;;7368778;19;20106;-68
2023/05/11 14:16:33;;;;;;;6.93;3.75;;;18.70;99.90;;;;;;7370111;19;20515;-69
2023/05/11 14:18:59;;;;;;;6.05;4.22;;;18.80;99.90;;;;;;7368500;19;20469;-68
2023/05/11 14:21:25;;;;;;;4.70;3.30;;;18.80;99.90;;;;;;7366747;19;20023;-69
2023/05/11 14:23:51;;;;;;;5.85;3.45;;;18.80;99.90;;;;;;7367648;19;20022;-58
2023/05/11 14:26:18;;;;;;;6.00;4.07;;;19.00;99.90;;;;;;7366661;19;20110;-58
2023/05/11 14:28:45;;;;;;;5.57;4.20;;;18.90;99.90;;;;;;7369407;19;20019;-60
2023/05/11 14:31:11;;;;;;;4.38;3.30;;;18.90;99.90;;;;;;7364201;19;20026;-58
2023/05/11 14:33:38;;;;;;;7.15;4.32;;;19.00;99.90;;;;;;7367671;19;20046;-58
2023/05/11 14:36:04;;;;;;;6.60;4.78;;;19.10;99.90;;;;;;7367976;19;20864;-58
2023/05/11 14:38:31;;;;;;;5.40;3.60;;;19.10;99.90;;;;;;7368835;19;20828;-58
2023/05/11 14:40:58;;;;;;;9.93;6.75;;;19.10;99.90;;;;;;7363504;19;20037;-58
2023/05/11 14:43:25;;;;;;;8.15;6.10;;;18.80;99.90;;;;;;7367947;19;20019;-58
2023/05/11 14:45:52;;;;;;;5.57;4.07;;;18.90;99.90;;;;;;7365794;19;20014;-59
2023/05/11 14:48:18;;;;;;;11.48;8.43;;;18.70;99.90;;;;;;7369906;19;20026;-58
2023/05/11 14:50:45;;;;;;;5.35;4.22;;;18.60;99.90;;;;;;7367619;19;20022;-58
2023/05/11 14:53:11;;;;;;;10.73;7.00;;;18.50;99.90;;;;;;7366562;19;20748;-58
2023/05/11 14:55:38;;;;;;;10.10;7.40;;;18.40;99.90;;;;;;7365528;19;20090;-58
2023/05/11 14:58:07;;;;;;;8.40;5.38;;;18.40;99.90;;;;;;7365058;19;20604;-60
2023/05/11 15:00:39;;;;;;;8.13;6.20;;;18.10;99.90;;;;;;7367795;19;20023;-58
2023/05/11 15:03:07;;;;;;;8.02;6.60;;;18.10;99.90;;;;;;7357334;19;20015;-58
2023/05/11 15:05:33;;;;;;;12.52;10.00;;;18.20;99.90;;;;;;7364142;19;20858;-58
2023/05/11 15:08:02;;;;;;;9.05;6.53;;;18.10;99.90;;;;;;7366668;19;20023;-68
2023/05/11 15:10:29;;;;;;;9.98;7.63;;;18.10;99.90;;;;;;7377050;19;20061;-69
2023/05/11 15:12:55;;;;;;;16.98;13.75;;;18.10;99.90;;;;;;7375521;19;20974;-58
2023/05/11 15:15:24;;;;;;;5.85;4.38;;;18.00;99.90;;;;;;7370595;19;20025;-71
2023/05/11 15:17:50;;;;;;;17.80;14.43;;;18.10;99.90;;;;;;7372704;19;20018;-69
2023/05/11 15:20:17;;;;;;;7.13;4.72;;;17.90;99.90;;;;;;7375423;19;20446;-69
2023/05/11 15:22:43;;;;;;;12.38;9.75;;;18.00;99.90;;;;;;7376944;19;20010;-68
2023/05/11 15:25:09;;;;;;;9.38;6.65;;;17.90;99.90;;;;;;7376676;19;20018;-69
2023/05/11 15:27:36;;;;;;;6.40;4.78;;;17.90;99.90;;;;;;7374350;19;20401;-59
2023/05/11 15:30:03;;;;;;;12.73;10.35;;;17.90;99.90;;;;;;7373786;19;20025;-59
2023/05/11 15:32:32;;;;;;;14.05;11.43;;;17.90;99.90;;;;;;7376153;19;20015;-58
2023/05/11 15:34:58;;;;;;;11.60;8.77;;;17.90;99.90;;;;;;7374098;19;20014;-58
2023/05/11 15:37:24;;;;;;;6.78;3.95;;;17.80;99.90;;;;;;7373100;19;20022;-59
2023/05/11 15:39:51;;;;;;;7.78;4.45;;;17.60;99.90;;;;;;7370399;19;20019;-58
2023/05/11 15:42:17;;;;;;;10.65;7.95;;;17.70;99.90;;;;;;7370229;19;20018;-58
2023/05/11 15:44:43;;;;;;;10.93;9.05;;;17.60;99.90;;;;;;7371815;19;20061;-59
2023/05/11 15:47:12;;;;;;;11.38;9.20;;;17.50;99.90;;;;;;7373909;19;20022;-59
2023/05/11 15:49:38;;;;;;;10.88;8.68;;;17.50;99.90;;;;;;7372574;19;20033;-59
2023/05/11 15:52:04;;;;;;;7.50;5.35;;;17.40;99.90;;;;;;7369932;19;20019;-59
2023/05/11 15:54:31;;;;;;;14.55;12.23;;;17.50;99.90;;;;;;7373604;19;20118;-59
2023/05/11 15:56:57;;;;;;;6.80;4.63;;;17.40;99.90;;;;;;7370577;19;20027;-58
2023/05/11 15:59:24;;;;;;;14.15;10.82;;;17.40;99.90;;;;;;7374965;19;20851;-58
2023/05/11 16:01:50;;;;;;;11.07;8.95;;;17.30;99.90;;;;;;7371305;19;20029;-59
2023/05/11 16:04:16;;;;;;;6.90;4.53;;;17.30;99.90;;;;;;7374750;19;20014;-59
2023/05/11 16:06:43;;;;;;;7.30;5.63;;;17.20;99.90;;;;;;7371335;19;20448;-59
2023/05/11 16:09:10;;;;;;;9.35;6.22;;;17.20;99.90;;;;;;7372200;19;20030;-59
2023/05/11 16:11:36;;;;;;;6.80;4.63;;;17.10;99.90;;;;;;7372070;19;20508;-68
2023/05/11 16:14:03;;;;;;;5.97;4.57;;;17.20;99.90;;;;;;7372338;19;20018;-69
2023/05/11 16:16:29;;;;;;;13.52;9.32;;;17.00;99.90;;;;;;7370619;19;20050;-69
2023/05/11 16:18:57;;;;;;;8.35;6.35;;;17.10;99.90;;;;;;7369146;19;20034;-68
2023/05/11 16:21:23;;;;;;;9.00;8.10;;;17.00;99.90;;;;;;7371068;19;20023;-69
2023/05/11 16:23:50;;;;;;;6.35;5.68;;;17.00;99.90;;;;;;7365508;19;20050;-70
2023/05/11 16:26:16;;;;;;;7.43;5.03;;;16.90;99.90;;;;;;7363687;19;20018;-70
2023/05/11 16:32:19;;;;;;;5.75;4.57;;;16.90;99.90;;;;;;7292697;19;20143;-67
2023/05/11 16:34:46;;;;;;;7.25;5.75;;;16.80;99.90;;;;;;7366352;19;20015;-68
2023/05/11 16:37:12;;;;;;;6.28;4.88;;;16.80;99.90;;;;;;7381183;19;20014;-68
2023/05/11 16:39:39;;;;;;;8.32;6.65;;;16.90;99.90;;;;;;7381570;19;20804;-69
2023/05/11 16:42:05;;;;;;;8.10;6.43;;;16.70;99.90;;;;;;7379114;19;20025;-68
2023/05/11 16:44:32;;;;;;;8.70;4.97;;;16.60;99.90;;;;;;7375927;19;20022;-59
2023/05/11 16:46:59;;;;;;;5.72;4.72;;;16.60;99.90;;;;;;7356719;19;20047;-58
2023/05/11 16:49:25;;;;;;;7.20;6.15;;;16.40;99.90;;;;;;7367180;19;20038;-58
2023/05/11 16:51:51;;;;;;;6.85;5.95;;;16.40;99.90;;;;;;7361896;19;20014;-84
2023/05/11 16:54:21;;;;;;;7.68;6.88;;;16.30;99.90;;;;;;7368815;19;20025;-85
2023/05/11 16:56:48;;;;;;;9.60;7.32;;;16.30;99.90;;;;;;7367939;19;20514;-83
2023/05/11 16:59:14;;;;;;;10.80;9.60;;;16.10;99.90;;;;;;7370040;19;20023;-83
2023/05/11 17:01:41;;;;;;;9.68;7.80;;;16.00;99.90;;;;;;7371418;19;20026;-83
2023/05/11 17:04:07;;;;;;;13.95;12.55;;;15.90;99.90;;;;;;7372504;19;20081;-82
2023/05/11 17:06:34;;;;;;;13.82;11.60;;;15.90;99.90;;;;;;7371647;19;20038;-82
2023/05/11 17:09:00;;;;;;;15.02;12.27;;;15.80;99.90;;;;;;7370072;19;20014;-83
2023/05/11 17:11:26;;;;;;;14.88;13.15;;;15.70;99.90;;;;;;7369292;19;20066;-82
2023/05/11 17:13:53;;;;;;;10.73;9.32;;;15.70;99.90;;;;;;7370204;19;20018;-83
2023/05/11 17:16:19;;;;;;;19.27;17.23;;;15.60;99.90;;;;;;7374185;19;20011;-83
2023/05/11 17:18:49;;;;;;;16.50;14.73;;;15.50;99.90;;;;;;7372867;19;20018;-83
2023/05/11 17:21:19;;;;;;;16.63;14.30;;;15.50;99.90;;;;;;7377340;19;20491;-83
2023/05/11 17:23:49;;;;;;;11.52;8.65;;;15.40;99.90;;;;;;7375648;19;20263;-83
2023/05/11 17:26:15;;;;;;;10.40;7.82;;;15.20;99.90;;;;;;7373678;19;20096;-83
2023/05/11 17:28:41;;;;;;;11.30;8.15;;;15.20;99.90;;;;;;7372505;19;20019;-84
2023/05/11 17:31:10;;;;;;;12.63;8.55;;;15.20;99.90;;;;;;7370534;19;20014;-83
2023/05/11 17:33:38;;;;;;;18.58;15.23;;;15.20;99.90;;;;;;7370088;19;20018;-83
2023/05/11 17:36:08;;;;;;;17.55;14.52;;;15.10;99.90;;;;;;7368623;19;20074;-83
2023/05/11 17:38:35;;;;;;;13.30;9.10;;;15.00;99.90;;;;;;7369269;19;20474;-82
2023/05/11 17:41:05;;;;;;;12.40;10.10;;;15.00;99.90;;;;;;7373470;19;20028;-83
2023/05/11 17:43:36;;;;;;;14.35;12.70;;;14.90;99.90;;;;;;7372253;19;20286;-82
2023/05/11 17:46:03;;;;;;;12.05;8.93;;;14.90;99.90;;;;;;7374375;19;20014;-83
2023/05/11 17:48:30;;;;;;;15.18;12.68;;;15.00;99.90;;;;;;7373784;19;20098;-81
2023/05/11 17:50:59;;;;;;;14.88;12.70;;;14.90;99.90;;;;;;7373556;19;20019;-82
2023/05/11 17:53:31;;;;;;;13.20;10.70;;;14.90;99.90;;;;;;7373111;19;20022;-82
2023/05/11 17:56:05;;;;;;;22.23;18.55;;;14.90;99.90;;;;;;7370030;19;20030;-82
2023/05/11 17:58:32;;;;;;;12.18;10.23;;;14.80;99.90;;;;;;7375140;19;20018;-83
2023/05/11 18:01:05;;;;;;;20.23;16.25;;;14.90;99.90;;;;;;7375851;19;20018;-82
2023/05/11 18:03:33;;;;;;;16.65;13.27;;;14.90;99.90;;;;;;7368518;19;20045;-82
2023/05/11 18:06:00;;;;;;;16.08;12.43;;;14.80;99.90;;;;;;7365953;19;20025;-82
2023/05/11 18:08:27;;;;;;;32.55;28.13;;;14.80;99.90;;;;;;7369381;19;20023;-82
2023/05/11 18:10:54;;;;;;;23.58;20.17;;;14.80;99.90;;;;;;7369188;19;20038;-82
2023/05/11 18:13:24;;;;;;;15.98;10.35;;;14.70;99.90;;;;;;7371026;19;20729;-82
2023/05/11 18:15:51;;;;;;;12.23;10.68;;;14.60;99.90;;;;;;7372326;19;20014;-81
2023/05/11 18:18:20;;;;;;;20.48;17.75;;;14.50;99.90;;;;;;7350934;19;20856;-82
2023/05/11 18:20:46;;;;;;;18.35;15.98;;;14.50;99.90;;;;;;7370030;19;20039;-82
2023/05/11 18:23:16;;;;;;;19.45;16.00;;;14.50;99.90;;;;;;7363423;19;20043;-82
2023/05/11 18:25:43;;;;;;;19.50;15.40;;;14.40;99.90;;;;;;7370240;19;20018;-82
2023/05/11 18:28:14;;;;;;;20.63;16.15;;;14.30;99.90;;;;;;7369358;19;20014;-82
2023/05/11 18:30:41;;;;;;;16.13;12.55;;;14.20;99.90;;;;;;7367180;19;20039;-82
2023/05/11 18:33:13;;;;;;;20.73;16.42;;;14.20;99.90;;;;;;7366827;19;20487;-82
2023/05/11 18:35:41;;;;;;;17.08;14.65;;;14.10;99.90;;;;;;7369675;19;20022;-82
2023/05/11 18:38:08;;;;;;;15.27;12.48;;;14.00;99.90;;;;;;7371442;19;20257;-82
2023/05/11 18:40:45;;;;;;;17.25;14.68;;;14.00;99.90;;;;;;7365593;19;20022;-82
2023/05/11 18:43:15;;;;;;;16.08;14.07;;;14.00;99.90;;;;;;7365163;19;20847;-82
2023/05/11 18:45:49;;;;;;;17.67;13.90;;;13.80;99.90;;;;;;7373131;19;20131;-82
2023/05/11 18:48:19;;;;;;;21.83;19.50;;;13.90;99.90;;;;;;7373760;19;20025;-81
2023/05/11 18:50:56;;;;;;;16.08;13.43;;;13.90;99.90;;;;;;7370201;19;20035;-82
2023/05/11 18:53:22;;;;;;;20.13;16.42;;;13.80;99.90;;;;;;7371932;19;20022;-83
2023/05/11 18:55:49;;;;;;;23.40;19.63;;;13.80;99.90;;;;;;7372411;19;20038;-82
2023/05/11 18:58:19;;;;;;;21.48;18.42;;;13.80;99.90;;;;;;7374903;19;20027;-82
2023/05/11 19:00:53;;;;;;;14.68;11.60;;;13.60;99.90;;;;;;7371561;19;20018;-82
2023/05/11 19:03:20;;;;;;;14.55;12.05;;;13.70;99.90;;;;;;7376937;19;20009;-82
2023/05/11 19:05:49;;;;;;;15.57;11.05;;;13.60;99.90;;;;;;7369027;19;20398;-82
2023/05/11 19:08:19;;;;;;;15.77;13.18;;;13.60;99.90;;;;;;7377725;19;20025;-82
2023/05/11 19:10:53;;;;;;;21.25;16.50;;;13.50;99.90;;;;;;7376595;19;20015;-81
2023/05/11 19:13:24;;;;;;;16.08;12.63;;;13.30;99.90;;;;;;7372952;19;20661;-81
2023/05/11 19:15:53;;;;;;;15.75;11.95;;;13.30;99.90;;;;;;7369451;19;20551;-82
2023/05/11 19:18:26;;;;;;;13.95;10.88;;;13.20;99.90;;;;;;7372714;19;20086;-82
2023/05/11 19:20:55;;;;;;;23.65;18.38;;;13.30;99.90;;;;;;7377728;19;20378;-82
2023/05/11 19:23:30;;;;;;;15.75;12.48;;;13.10;99.90;;;;;;7374715;19;20029;-83
2023/05/11 19:26:07;;;;;;;18.95;15.77;;;13.00;99.90;;;;;;7372280;19;20027;-81
2023/05/11 19:28:35;;;;;;;15.25;12.38;;;13.10;99.90;;;;;;7377165;19;20015;-86
2023/05/11 19:31:23;;;;;;;18.73;14.20;;;13.00;99.90;;;;;;7377632;19;20011;-82
2023/05/11 19:33:58;;;;;;;15.85;12.48;;;13.00;99.90;;;;;;7372620;19;20042;-82
2023/05/11 19:36:28;;;;;;;30.15;23.58;;;13.00;99.90;;;;;;7372293;19;20022;-82
2023/05/11 19:38:56;;;;;;;17.77;14.23;;;12.90;99.90;;;;;;7374599;19;20489;-82
2023/05/11 19:41:22;;;;;;;35.75;29.33;;;12.90;99.90;;;;;;7370728;19;20023;-82
2023/05/11 19:43:49;;;;;;;30.55;26.58;;;12.90;99.90;;;;;;7377071;19;20026;-82
2023/05/11 19:46:18;;;;;;;20.48;14.68;;;12.80;99.90;;;;;;7373954;19;20032;-82
2023/05/11 19:48:44;;;;;;;19.20;14.48;;;12.80;99.90;;;;;;7378596;19;20107;-82
2023/05/11 19:51:14;;;;;;;18.95;15.68;;;12.70;99.90;;;;;;7377485;19;20022;-82
2023/05/11 19:53:41;;;;;;;21.45;16.92;;;12.80;99.90;;;;;;7371543;19;20505;-82
2023/05/11 19:56:08;;;;;;;26.35;21.13;;;12.70;99.90;;;;;;7369691;19;20018;-82
2023/05/11 19:58:34;;;;;;;19.02;13.90;;;12.60;99.90;;;;;;7375549;19;20018;-82
2023/05/11 20:01:09;;;;;;;17.90;13.05;;;12.60;99.90;;;;;;7376755;19;20035;-82
2023/05/11 20:03:40;;;;;;;25.98;19.88;;;12.50;99.90;;;;;;7367824;19;20038;-82
2023/05/11 20:06:07;;;;;;;29.33;24.42;;;12.60;99.90;;;;;;7370431;19;20010;-83
2023/05/11 20:08:33;;;;;;;23.13;16.98;;;12.50;99.90;;;;;;7369650;19;20065;-83
2023/05/11 20:11:03;;;;;;;24.15;17.75;;;12.50;99.90;;;;;;7373750;19;20016;-85
2023/05/11 20:13:59;;;;;;;20.88;15.73;;;12.50;99.90;;;;;;7368040;19;20389;-83
2023/05/11 20:16:36;;;;;;;;;;;12.40;99.90;;;;;;7375641;19;20018;-83
2023/05/11 20:19:03;;;;;;;19.58;14.70;;;12.40;99.90;;;;;;7375015;19;20764;-82
2023/05/11 20:21:32;;;;;;;23.48;17.00;;;12.40;99.90;;;;;;7374146;19;20030;-84
2023/05/11 20:24:02;;;;;;;23.17;18.25;;;12.40;99.90;;;;;;7374273;19;20014;-83
2023/05/11 20:26:35;;;;;;;21.65;16.92;;;12.40;99.90;;;;;;7373062;19;20043;-82
2023/05/11 20:29:07;;;;;;;20.25;14.77;;;12.40;99.90;;;;;;7372819;19;20754;-83
2023/05/11 20:31:45;;;;;;;21.08;14.55;;;12.40;99.90;;;;;;7375523;19;20025;-83
2023/05/11 20:34:17;;;;;;;20.13;14.40;;;12.30;99.90;;;;;;7370718;19;20082;-84
2023/05/11 20:36:58;;;;;;;21.00;15.00;;;12.30;99.90;;;;;;7372611;19;20010;-83
2023/05/11 20:39:38;;;;;;;22.92;19.85;;;12.30;99.90;;;;;;7371485;19;20022;-84
2023/05/11 20:42:06;;;;;;;20.30;16.35;;;12.30;99.90;;;;;;7373214;19;20019;-81